sensor_id;sensor_type;location;lat;lon;timestamp;P1;durP1;ratioP1;P2;durP2;ratioP2
80381;SDS011;69692;55.820;37.490;2024-01-06T00:02:02;6.75;;;3.25;;
80381;SDS011;69692;55.820;37.490;2024-01-06T00:06:54;3.40;;;3.10;;
80381;SDS011;69692;55.820;37.490;2024-01-06T00:09:19;5.43;;;4.75;;
80381;SDS011;69692;55.820;37.490;2024-01-06T00:14:11;5.25;;;3.58;;
80381;SDS011;69692;55.820;37.490;2024-01-06T00:19:02;2.58;;;2.20;;
80381;SDS011;69692;55.820;37.490;2024-01-06T00:23:54;1.90;;;1.48;;
80381;SDS011;69692;55.820;37.490;2024-01-06T00:26:21;4.90;;;2.97;;
80381;SDS011;69692;55.820;37.490;2024-01-06T00:28:47;4.32;;;2.38;;
80381;SDS011;69692;55.820;37.490;2024-01-06T00:31:16;6.88;;;3.25;;
80381;SDS011;69692;55.820;37.490;2024-01-06T00:33:42;3.60;;;1.55;;
80381;SDS011;69692;55.820;37.490;2024-01-06T00:36:08;4.95;;;3.20;;
80381;SDS011;69692;55.820;37.490;2024-01-06T00:41:03;8.40;;;4.28;;
80381;SDS011;69692;55.820;37.490;2024-01-06T00:43:29;5.18;;;2.40;;
80381;SDS011;69692;55.820;37.490;2024-01-06T00:45:55;5.68;;;3.88;;
80381;SDS011;69692;55.820;37.490;2024-01-06T00:50:47;4.07;;;3.03;;
80381;SDS011;69692;55.820;37.490;2024-01-06T00:55:39;5.95;;;2.88;;
80381;SDS011;69692;55.820;37.490;2024-01-06T00:58:04;6.50;;;4.35;;
80381;SDS011;69692;55.820;37.490;2024-01-06T01:00:30;7.05;;;3.42;;
80381;SDS011;69692;55.820;37.490;2024-01-06T01:05:22;4.45;;;3.58;;
80381;SDS011;69692;55.820;37.490;2024-01-06T01:10:14;4.03;;;2.90;;
80381;SDS011;69692;55.820;37.490;2024-01-06T01:15:05;4.10;;;3.38;;
80381;SDS011;69692;55.820;37.490;2024-01-06T01:17:31;6.15;;;3.95;;
80381;SDS011;69692;55.820;37.490;2024-01-06T01:19:57;6.80;;;4.40;;
80381;SDS011;69692;55.820;37.490;2024-01-06T01:24:49;4.78;;;3.75;;
80381;SDS011;69692;55.820;37.490;2024-01-06T01:29:40;6.40;;;4.13;;
80381;SDS011;69692;55.820;37.490;2024-01-06T01:34:32;5.22;;;3.47;;
80381;SDS011;69692;55.820;37.490;2024-01-06T01:39:23;2.55;;;2.05;;
80381;SDS011;69692;55.820;37.490;2024-01-06T01:44:15;6.38;;;3.92;;
80381;SDS011;69692;55.820;37.490;2024-01-06T01:46:41;4.97;;;3.95;;
80381;SDS011;69692;55.820;37.490;2024-01-06T01:51:34;5.18;;;3.25;;
80381;SDS011;69692;55.820;37.490;2024-01-06T01:54:01;7.57;;;4.38;;
80381;SDS011;69692;55.820;37.490;2024-01-06T01:56:30;5.75;;;3.50;;
80381;SDS011;69692;55.820;37.490;2024-01-06T01:59:03;4.50;;;3.28;;
80381;SDS011;69692;55.820;37.490;2024-01-06T02:01:32;7.50;;;3.70;;
80381;SDS011;69692;55.820;37.490;2024-01-06T02:03:59;2.92;;;2.63;;
80381;SDS011;69692;55.820;37.490;2024-01-06T02:06:25;6.50;;;3.45;;
80381;SDS011;69692;55.820;37.490;2024-01-06T02:08:51;7.10;;;4.82;;
80381;SDS011;69692;55.820;37.490;2024-01-06T02:13:43;8.30;;;3.33;;
80381;SDS011;69692;55.820;37.490;2024-01-06T02:16:08;5.28;;;3.03;;
80381;SDS011;69692;55.820;37.490;2024-01-06T02:21:00;5.05;;;3.33;;
80381;SDS011;69692;55.820;37.490;2024-01-06T02:23:28;4.63;;;3.00;;
80381;SDS011;69692;55.820;37.490;2024-01-06T02:25:55;6.80;;;3.60;;
80381;SDS011;69692;55.820;37.490;2024-01-06T02:28:22;9.23;;;3.35;;
80381;SDS011;69692;55.820;37.490;2024-01-06T02:30:48;4.95;;;3.70;;
80381;SDS011;69692;55.820;37.490;2024-01-06T02:33:15;6.25;;;3.95;;
80381;SDS011;69692;55.820;37.490;2024-01-06T02:38:06;6.15;;;4.07;;
80381;SDS011;69692;55.820;37.490;2024-01-06T02:40:33;3.78;;;3.17;;
80381;SDS011;69692;55.820;37.490;2024-01-06T02:43:00;8.70;;;3.63;;
80381;SDS011;69692;55.820;37.490;2024-01-06T02:47:51;4.57;;;2.40;;
80381;SDS011;69692;55.820;37.490;2024-01-06T02:52:43;6.20;;;4.00;;
80381;SDS011;69692;55.820;37.490;2024-01-06T02:55:10;14.57;;;4.45;;
80381;SDS011;69692;55.820;37.490;2024-01-06T02:57:37;5.85;;;4.32;;
80381;SDS011;69692;55.820;37.490;2024-01-06T03:00:03;7.85;;;3.97;;
80381;SDS011;69692;55.820;37.490;2024-01-06T03:02:31;7.30;;;5.15;;
80381;SDS011;69692;55.820;37.490;2024-01-06T03:07:22;7.07;;;3.85;;
80381;SDS011;69692;55.820;37.490;2024-01-06T03:09:48;8.50;;;4.15;;
80381;SDS011;69692;55.820;37.490;2024-01-06T03:14:39;5.53;;;3.35;;
80381;SDS011;69692;55.820;37.490;2024-01-06T03:19:31;5.65;;;3.85;;
80381;SDS011;69692;55.820;37.490;2024-01-06T03:24:23;8.77;;;4.75;;
80381;SDS011;69692;55.820;37.490;2024-01-06T03:26:51;5.05;;;4.57;;
80381;SDS011;69692;55.820;37.490;2024-01-06T03:31:43;7.82;;;4.93;;
80381;SDS011;69692;55.820;37.490;2024-01-06T03:34:10;6.60;;;3.72;;
80381;SDS011;69692;55.820;37.490;2024-01-06T03:36:37;7.85;;;3.65;;
80381;SDS011;69692;55.820;37.490;2024-01-06T03:39:03;10.27;;;5.05;;
80381;SDS011;69692;55.820;37.490;2024-01-06T03:41:29;7.97;;;4.43;;
80381;SDS011;69692;55.820;37.490;2024-01-06T03:46:21;3.85;;;3.28;;
80381;SDS011;69692;55.820;37.490;2024-01-06T03:48:47;6.82;;;3.92;;
80381;SDS011;69692;55.820;37.490;2024-01-06T03:51:13;11.27;;;5.53;;
80381;SDS011;69692;55.820;37.490;2024-01-06T03:56:08;6.18;;;4.30;;
80381;SDS011;69692;55.820;37.490;2024-01-06T03:58:34;8.55;;;5.60;;
80381;SDS011;69692;55.820;37.490;2024-01-06T04:01:00;8.23;;;5.80;;
80381;SDS011;69692;55.820;37.490;2024-01-06T04:03:26;7.40;;;4.63;;
80381;SDS011;69692;55.820;37.490;2024-01-06T04:08:18;10.95;;;3.97;;
80381;SDS011;69692;55.820;37.490;2024-01-06T04:13:13;12.30;;;5.82;;
80381;SDS011;69692;55.820;37.490;2024-01-06T04:15:40;7.25;;;4.63;;
80381;SDS011;69692;55.820;37.490;2024-01-06T04:20:32;5.57;;;3.67;;
80381;SDS011;69692;55.820;37.490;2024-01-06T04:22:58;12.73;;;5.32;;
80381;SDS011;69692;55.820;37.490;2024-01-06T04:25:24;5.10;;;3.67;;
80381;SDS011;69692;55.820;37.490;2024-01-06T04:27:50;9.48;;;5.18;;
80381;SDS011;69692;55.820;37.490;2024-01-06T04:32:43;7.72;;;5.05;;
80381;SDS011;69692;55.820;37.490;2024-01-06T04:37:35;6.90;;;3.95;;
80381;SDS011;69692;55.820;37.490;2024-01-06T04:42:27;5.40;;;4.30;;
80381;SDS011;69692;55.820;37.490;2024-01-06T04:47:18;8.60;;;5.20;;
80381;SDS011;69692;55.820;37.490;2024-01-06T04:49:44;11.20;;;5.25;;
80381;SDS011;69692;55.820;37.490;2024-01-06T04:52:10;6.05;;;3.88;;
80381;SDS011;69692;55.820;37.490;2024-01-06T04:54:37;9.35;;;5.63;;
80381;SDS011;69692;55.820;37.490;2024-01-06T04:59:29;9.60;;;5.55;;
80381;SDS011;69692;55.820;37.490;2024-01-06T05:01:56;12.32;;;5.35;;
80381;SDS011;69692;55.820;37.490;2024-01-06T05:04:23;11.68;;;5.85;;
80381;SDS011;69692;55.820;37.490;2024-01-06T05:06:53;10.82;;;5.80;;
80381;SDS011;69692;55.820;37.490;2024-01-06T05:09:20;10.23;;;4.50;;
80381;SDS011;69692;55.820;37.490;2024-01-06T05:14:12;7.70;;;5.60;;
80381;SDS011;69692;55.820;37.490;2024-01-06T05:19:03;9.50;;;4.88;;
80381;SDS011;69692;55.820;37.490;2024-01-06T05:23:55;7.20;;;4.35;;
80381;SDS011;69692;55.820;37.490;2024-01-06T05:26:21;9.35;;;4.93;;
80381;SDS011;69692;55.820;37.490;2024-01-06T05:28:47;8.63;;;3.92;;
80381;SDS011;69692;55.820;37.490;2024-01-06T05:31:14;16.60;;;6.20;;
80381;SDS011;69692;55.820;37.490;2024-01-06T05:36:05;8.95;;;4.75;;
80381;SDS011;69692;55.820;37.490;2024-01-06T05:38:31;7.97;;;6.13;;
80381;SDS011;69692;55.820;37.490;2024-01-06T05:43:23;10.45;;;4.43;;
80381;SDS011;69692;55.820;37.490;2024-01-06T05:45:49;7.82;;;4.65;;
80381;SDS011;69692;55.820;37.490;2024-01-06T05:48:16;11.18;;;5.72;;
80381;SDS011;69692;55.820;37.490;2024-01-06T05:50:42;7.60;;;6.10;;
80381;SDS011;69692;55.820;37.490;2024-01-06T05:53:09;10.02;;;5.82;;
80381;SDS011;69692;55.820;37.490;2024-01-06T05:55:36;12.55;;;6.28;;
80381;SDS011;69692;55.820;37.490;2024-01-06T05:58:02;12.68;;;5.63;;
80381;SDS011;69692;55.820;37.490;2024-01-06T06:00:28;13.02;;;7.30;;
80381;SDS011;69692;55.820;37.490;2024-01-06T06:02:57;7.65;;;4.75;;
80381;SDS011;69692;55.820;37.490;2024-01-06T06:05:24;12.32;;;6.40;;
80381;SDS011;69692;55.820;37.490;2024-01-06T06:07:50;11.15;;;4.82;;
80381;SDS011;69692;55.820;37.490;2024-01-06T06:10:17;11.60;;;5.68;;
80381;SDS011;69692;55.820;37.490;2024-01-06T06:12:44;10.75;;;5.65;;
80381;SDS011;69692;55.820;37.490;2024-01-06T06:15:10;8.23;;;6.28;;
80381;SDS011;69692;55.820;37.490;2024-01-06T06:20:02;11.40;;;6.93;;
80381;SDS011;69692;55.820;37.490;2024-01-06T06:22:29;8.85;;;4.80;;
80381;SDS011;69692;55.820;37.490;2024-01-06T06:24:56;11.88;;;6.28;;
80381;SDS011;69692;55.820;37.490;2024-01-06T06:27:23;13.00;;;6.38;;
80381;SDS011;69692;55.820;37.490;2024-01-06T06:29:49;8.98;;;5.72;;
80381;SDS011;69692;55.820;37.490;2024-01-06T06:32:15;10.70;;;7.07;;
80381;SDS011;69692;55.820;37.490;2024-01-06T06:37:07;9.35;;;6.88;;
80381;SDS011;69692;55.820;37.490;2024-01-06T06:42:00;9.07;;;5.70;;
80381;SDS011;69692;55.820;37.490;2024-01-06T06:44:27;8.07;;;5.70;;
80381;SDS011;69692;55.820;37.490;2024-01-06T06:49:18;7.13;;;4.45;;
80381;SDS011;69692;55.820;37.490;2024-01-06T06:54:13;9.52;;;5.13;;
80381;SDS011;69692;55.820;37.490;2024-01-06T06:56:44;8.60;;;5.55;;
80381;SDS011;69692;55.820;37.490;2024-01-06T06:59:10;9.27;;;5.43;;
80381;SDS011;69692;55.820;37.490;2024-01-06T07:04:03;8.05;;;4.80;;
80381;SDS011;69692;55.820;37.490;2024-01-06T07:08:55;10.15;;;4.95;;
80381;SDS011;69692;55.820;37.490;2024-01-06T07:11:21;9.02;;;7.13;;
80381;SDS011;69692;55.820;37.490;2024-01-06T07:16:13;10.95;;;5.82;;
80381;SDS011;69692;55.820;37.490;2024-01-06T07:21:04;8.15;;;4.50;;
80381;SDS011;69692;55.820;37.490;2024-01-06T07:23:34;12.00;;;6.57;;
80381;SDS011;69692;55.820;37.490;2024-01-06T07:26:00;15.40;;;6.85;;
80381;SDS011;69692;55.820;37.490;2024-01-06T07:28:27;11.77;;;6.85;;
80381;SDS011;69692;55.820;37.490;2024-01-06T07:30:53;10.90;;;7.40;;
80381;SDS011;69692;55.820;37.490;2024-01-06T07:33:20;12.30;;;5.65;;
80381;SDS011;69692;55.820;37.490;2024-01-06T07:35:46;9.73;;;6.03;;
80381;SDS011;69692;55.820;37.490;2024-01-06T07:38:14;11.38;;;5.72;;
80381;SDS011;69692;55.820;37.490;2024-01-06T07:43:05;13.10;;;6.85;;
80381;SDS011;69692;55.820;37.490;2024-01-06T07:45:31;15.45;;;7.80;;
80381;SDS011;69692;55.820;37.490;2024-01-06T07:47:59;13.20;;;8.50;;
80381;SDS011;69692;55.820;37.490;2024-01-06T07:50:25;11.77;;;5.80;;
80381;SDS011;69692;55.820;37.490;2024-01-06T07:52:52;11.57;;;6.13;;
80381;SDS011;69692;55.820;37.490;2024-01-06T07:55:18;11.27;;;6.45;;
80381;SDS011;69692;55.820;37.490;2024-01-06T07:57:44;12.23;;;6.70;;
80381;SDS011;69692;55.820;37.490;2024-01-06T08:00:11;14.80;;;7.28;;
80381;SDS011;69692;55.820;37.490;2024-01-06T08:02:41;8.50;;;5.38;;
80381;SDS011;69692;55.820;37.490;2024-01-06T08:05:07;13.38;;;6.93;;
80381;SDS011;69692;55.820;37.490;2024-01-06T08:07:34;14.27;;;6.35;;
80381;SDS011;69692;55.820;37.490;2024-01-06T08:10:00;6.53;;;4.65;;
80381;SDS011;69692;55.820;37.490;2024-01-06T08:12:26;16.60;;;7.05;;
80381;SDS011;69692;55.820;37.490;2024-01-06T08:14:52;11.57;;;5.85;;
80381;SDS011;69692;55.820;37.490;2024-01-06T08:17:21;9.50;;;6.30;;
80381;SDS011;69692;55.820;37.490;2024-01-06T08:19:47;14.05;;;6.85;;
80381;SDS011;69692;55.820;37.490;2024-01-06T08:24:39;10.27;;;4.50;;
80381;SDS011;69692;55.820;37.490;2024-01-06T08:27:05;17.13;;;6.68;;
80381;SDS011;69692;55.820;37.490;2024-01-06T08:31:57;11.85;;;6.50;;
80381;SDS011;69692;55.820;37.490;2024-01-06T08:36:48;13.93;;;6.75;;
80381;SDS011;69692;55.820;37.490;2024-01-06T08:41:40;12.02;;;6.47;;
80381;SDS011;69692;55.820;37.490;2024-01-06T08:44:06;18.92;;;7.72;;
80381;SDS011;69692;55.820;37.490;2024-01-06T08:46:31;11.65;;;6.65;;
80381;SDS011;69692;55.820;37.490;2024-01-06T08:51:23;14.15;;;6.43;;
80381;SDS011;69692;55.820;37.490;2024-01-06T08:53:49;17.90;;;7.60;;
80381;SDS011;69692;55.820;37.490;2024-01-06T08:58:43;11.05;;;6.43;;
80381;SDS011;69692;55.820;37.490;2024-01-06T09:01:09;11.50;;;7.45;;
80381;SDS011;69692;55.820;37.490;2024-01-06T09:03:35;14.18;;;8.50;;
80381;SDS011;69692;55.820;37.490;2024-01-06T09:08:26;9.32;;;6.32;;
80381;SDS011;69692;55.820;37.490;2024-01-06T09:10:53;13.35;;;6.80;;
80381;SDS011;69692;55.820;37.490;2024-01-06T09:13:22;15.65;;;8.10;;
80381;SDS011;69692;55.820;37.490;2024-01-06T09:15:50;15.00;;;6.63;;
80381;SDS011;69692;55.820;37.490;2024-01-06T09:18:18;13.93;;;6.72;;
80381;SDS011;69692;55.820;37.490;2024-01-06T09:23:12;10.10;;;5.72;;
80381;SDS011;69692;55.820;37.490;2024-01-06T09:25:39;14.43;;;7.85;;
80381;SDS011;69692;55.820;37.490;2024-01-06T09:28:08;17.42;;;6.90;;
80381;SDS011;69692;55.820;37.490;2024-01-06T09:30:34;19.85;;;8.85;;
80381;SDS011;69692;55.820;37.490;2024-01-06T09:33:00;16.60;;;8.45;;
80381;SDS011;69692;55.820;37.490;2024-01-06T09:37:52;10.80;;;6.63;;
80381;SDS011;69692;55.820;37.490;2024-01-06T09:40:23;18.50;;;7.28;;
80381;SDS011;69692;55.820;37.490;2024-01-06T09:42:50;11.48;;;8.07;;
80381;SDS011;69692;55.820;37.490;2024-01-06T09:45:16;18.80;;;8.32;;
80381;SDS011;69692;55.820;37.490;2024-01-06T09:47:43;20.67;;;8.75;;
80381;SDS011;69692;55.820;37.490;2024-01-06T09:50:13;18.55;;;7.97;;
80381;SDS011;69692;55.820;37.490;2024-01-06T09:52:41;17.45;;;7.85;;
80381;SDS011;69692;55.820;37.490;2024-01-06T09:55:11;14.48;;;6.75;;
80381;SDS011;69692;55.820;37.490;2024-01-06T09:57:38;17.98;;;7.63;;
80381;SDS011;69692;55.820;37.490;2024-01-06T10:00:04;17.35;;;8.13;;
80381;SDS011;69692;55.820;37.490;2024-01-06T10:02:37;13.05;;;7.25;;
80381;SDS011;69692;55.820;37.490;2024-01-06T10:05:04;19.58;;;8.65;;
80381;SDS011;69692;55.820;37.490;2024-01-06T10:07:30;17.02;;;8.80;;
80381;SDS011;69692;55.820;37.490;2024-01-06T10:09:56;20.75;;;10.18;;
80381;SDS011;69692;55.820;37.490;2024-01-06T10:12:23;20.27;;;9.00;;
80381;SDS011;69692;55.820;37.490;2024-01-06T10:14:50;16.95;;;8.63;;
80381;SDS011;69692;55.820;37.490;2024-01-06T10:17:17;19.27;;;9.82;;
80381;SDS011;69692;55.820;37.490;2024-01-06T10:19:46;18.80;;;9.40;;
80381;SDS011;69692;55.820;37.490;2024-01-06T10:22:18;17.13;;;9.50;;
80381;SDS011;69692;55.820;37.490;2024-01-06T10:24:44;28.88;;;9.50;;
80381;SDS011;69692;55.820;37.490;2024-01-06T10:27:10;12.45;;;7.18;;
80381;SDS011;69692;55.820;37.490;2024-01-06T10:29:36;23.77;;;9.63;;
80381;SDS011;69692;55.820;37.490;2024-01-06T10:32:02;23.50;;;10.73;;
80381;SDS011;69692;55.820;37.490;2024-01-06T10:34:28;15.35;;;8.77;;
80381;SDS011;69692;55.820;37.490;2024-01-06T10:36:54;17.40;;;8.68;;
80381;SDS011;69692;55.820;37.490;2024-01-06T10:39:21;18.23;;;8.75;;
80381;SDS011;69692;55.820;37.490;2024-01-06T10:41:50;23.27;;;10.05;;
80381;SDS011;69692;55.820;37.490;2024-01-06T10:44:17;16.88;;;8.38;;
80381;SDS011;69692;55.820;37.490;2024-01-06T10:46:44;19.42;;;8.85;;
80381;SDS011;69692;55.820;37.490;2024-01-06T10:49:11;18.23;;;9.30;;
80381;SDS011;69692;55.820;37.490;2024-01-06T10:51:38;16.05;;;8.23;;
80381;SDS011;69692;55.820;37.490;2024-01-06T10:54:04;25.85;;;10.43;;
80381;SDS011;69692;55.820;37.490;2024-01-06T10:56:37;20.90;;;9.60;;
80381;SDS011;69692;55.820;37.490;2024-01-06T10:59:04;22.27;;;11.02;;
80381;SDS011;69692;55.820;37.490;2024-01-06T11:01:30;13.27;;;7.32;;
80381;SDS011;69692;55.820;37.490;2024-01-06T11:03:57;18.92;;;8.65;;
80381;SDS011;69692;55.820;37.490;2024-01-06T11:06:25;13.77;;;8.77;;
80381;SDS011;69692;55.820;37.490;2024-01-06T11:11:48;23.10;;;9.77;;
80381;SDS011;69692;55.820;37.490;2024-01-06T11:14:24;14.88;;;9.48;;
80381;SDS011;69692;55.820;37.490;2024-01-06T11:16:52;23.60;;;8.50;;
80381;SDS011;69692;55.820;37.490;2024-01-06T11:24:47;18.42;;;8.70;;
80381;SDS011;69692;55.820;37.490;2024-01-06T11:27:17;20.30;;;9.80;;
80381;SDS011;69692;55.820;37.490;2024-01-06T11:29:45;23.88;;;10.13;;
80381;SDS011;69692;55.820;37.490;2024-01-06T11:32:18;14.40;;;8.65;;
80381;SDS011;69692;55.820;37.490;2024-01-06T11:34:51;16.08;;;9.40;;
80381;SDS011;69692;55.820;37.490;2024-01-06T11:37:20;21.58;;;9.75;;
80381;SDS011;69692;55.820;37.490;2024-01-06T11:39:52;18.20;;;9.88;;
80381;SDS011;69692;55.820;37.490;2024-01-06T11:42:18;21.88;;;11.32;;
80381;SDS011;69692;55.820;37.490;2024-01-06T11:44:45;20.20;;;9.25;;
80381;SDS011;69692;55.820;37.490;2024-01-06T11:47:16;21.15;;;11.30;;
80381;SDS011;69692;55.820;37.490;2024-01-06T11:49:44;19.98;;;11.60;;
80381;SDS011;69692;55.820;37.490;2024-01-06T11:52:11;20.85;;;10.52;;
80381;SDS011;69692;55.820;37.490;2024-01-06T11:54:37;21.88;;;11.45;;
80381;SDS011;69692;55.820;37.490;2024-01-06T11:57:04;19.02;;;12.48;;
80381;SDS011;69692;55.820;37.490;2024-01-06T11:59:30;18.35;;;10.82;;
80381;SDS011;69692;55.820;37.490;2024-01-06T12:01:55;20.95;;;12.27;;
80381;SDS011;69692;55.820;37.490;2024-01-06T12:04:21;28.25;;;11.25;;
80381;SDS011;69692;55.820;37.490;2024-01-06T12:06:47;24.35;;;12.65;;
80381;SDS011;69692;55.820;37.490;2024-01-06T12:09:14;20.15;;;12.05;;
80381;SDS011;69692;55.820;37.490;2024-01-06T12:11:44;27.20;;;9.45;;
80381;SDS011;69692;55.820;37.490;2024-01-06T12:14:12;27.58;;;10.55;;
80381;SDS011;69692;55.820;37.490;2024-01-06T12:16:38;23.02;;;12.18;;
80381;SDS011;69692;55.820;37.490;2024-01-06T12:19:04;25.40;;;12.57;;
80381;SDS011;69692;55.820;37.490;2024-01-06T12:21:30;22.02;;;10.30;;
80381;SDS011;69692;55.820;37.490;2024-01-06T12:24:12;25.85;;;11.27;;
80381;SDS011;69692;55.820;37.490;2024-01-06T12:26:41;23.70;;;12.80;;
80381;SDS011;69692;55.820;37.490;2024-01-06T12:29:07;22.20;;;12.95;;
80381;SDS011;69692;55.820;37.490;2024-01-06T12:31:33;17.38;;;10.27;;
80381;SDS011;69692;55.820;37.490;2024-01-06T12:33:59;26.30;;;11.07;;
80381;SDS011;69692;55.820;37.490;2024-01-06T12:36:25;17.00;;;10.98;;
80381;SDS011;69692;55.820;37.490;2024-01-06T12:38:51;15.38;;;9.60;;
80381;SDS011;69692;55.820;37.490;2024-01-06T12:41:16;18.08;;;10.60;;
80381;SDS011;69692;55.820;37.490;2024-01-06T12:43:42;19.27;;;11.48;;
80381;SDS011;69692;55.820;37.490;2024-01-06T12:46:08;21.98;;;9.68;;
80381;SDS011;69692;55.820;37.490;2024-01-06T12:48:34;22.48;;;11.20;;
80381;SDS011;69692;55.820;37.490;2024-01-06T12:51:00;24.77;;;10.15;;
80381;SDS011;69692;55.820;37.490;2024-01-06T12:53:26;18.52;;;10.85;;
80381;SDS011;69692;55.820;37.490;2024-01-06T12:55:52;26.63;;;10.13;;
80381;SDS011;69692;55.820;37.490;2024-01-06T12:58:18;16.65;;;9.88;;
80381;SDS011;69692;55.820;37.490;2024-01-06T13:00:43;20.17;;;11.77;;
80381;SDS011;69692;55.820;37.490;2024-01-06T13:03:09;21.35;;;10.50;;
80381;SDS011;69692;55.820;37.490;2024-01-06T13:05:35;25.60;;;12.75;;
80381;SDS011;69692;55.820;37.490;2024-01-06T13:08:02;20.45;;;9.88;;
80381;SDS011;69692;55.820;37.490;2024-01-06T13:10:28;25.35;;;10.25;;
80381;SDS011;69692;55.820;37.490;2024-01-06T13:12:54;23.85;;;11.35;;
80381;SDS011;69692;55.820;37.490;2024-01-06T13:15:20;15.50;;;8.93;;
80381;SDS011;69692;55.820;37.490;2024-01-06T13:17:46;18.58;;;9.80;;
80381;SDS011;69692;55.820;37.490;2024-01-06T13:20:12;19.73;;;10.63;;
80381;SDS011;69692;55.820;37.490;2024-01-06T13:22:38;19.17;;;11.43;;
80381;SDS011;69692;55.820;37.490;2024-01-06T13:25:06;22.08;;;11.57;;
80381;SDS011;69692;55.820;37.490;2024-01-06T13:27:34;20.92;;;10.80;;
80381;SDS011;69692;55.820;37.490;2024-01-06T13:30:00;21.42;;;11.38;;
80381;SDS011;69692;55.820;37.490;2024-01-06T13:32:26;22.48;;;12.32;;
80381;SDS011;69692;55.820;37.490;2024-01-06T13:34:53;20.63;;;10.43;;
80381;SDS011;69692;55.820;37.490;2024-01-06T13:37:21;20.75;;;11.98;;
80381;SDS011;69692;55.820;37.490;2024-01-06T13:39:49;19.88;;;9.23;;
80381;SDS011;69692;55.820;37.490;2024-01-06T13:42:15;26.92;;;12.00;;
80381;SDS011;69692;55.820;37.490;2024-01-06T13:44:41;19.92;;;10.60;;
80381;SDS011;69692;55.820;37.490;2024-01-06T13:47:07;15.18;;;9.27;;
80381;SDS011;69692;55.820;37.490;2024-01-06T13:49:33;25.02;;;11.38;;
80381;SDS011;69692;55.820;37.490;2024-01-06T13:51:59;25.33;;;10.95;;
80381;SDS011;69692;55.820;37.490;2024-01-06T13:54:25;20.83;;;10.68;;
80381;SDS011;69692;55.820;37.490;2024-01-06T13:56:51;19.50;;;10.93;;
80381;SDS011;69692;55.820;37.490;2024-01-06T13:59:17;24.30;;;11.50;;
80381;SDS011;69692;55.820;37.490;2024-01-06T14:01:43;20.85;;;11.38;;
80381;SDS011;69692;55.820;37.490;2024-01-06T14:04:09;22.13;;;11.55;;
80381;SDS011;69692;55.820;37.490;2024-01-06T14:06:35;23.02;;;11.18;;
80381;SDS011;69692;55.820;37.490;2024-01-06T14:09:01;32.10;;;13.43;;
80381;SDS011;69692;55.820;37.490;2024-01-06T14:11:27;22.90;;;11.30;;
80381;SDS011;69692;55.820;37.490;2024-01-06T14:13:53;21.15;;;11.40;;
80381;SDS011;69692;55.820;37.490;2024-01-06T14:16:19;19.23;;;11.93;;
80381;SDS011;69692;55.820;37.490;2024-01-06T14:18:46;24.67;;;10.27;;
80381;SDS011;69692;55.820;37.490;2024-01-06T14:21:12;20.70;;;11.95;;
80381;SDS011;69692;55.820;37.490;2024-01-06T14:23:41;23.15;;;11.45;;
80381;SDS011;69692;55.820;37.490;2024-01-06T14:26:07;19.33;;;11.23;;
80381;SDS011;69692;55.820;37.490;2024-01-06T14:28:33;20.63;;;11.23;;
80381;SDS011;69692;55.820;37.490;2024-01-06T14:30:59;19.77;;;10.70;;
80381;SDS011;69692;55.820;37.490;2024-01-06T14:33:25;31.00;;;12.25;;
80381;SDS011;69692;55.820;37.490;2024-01-06T14:35:52;28.23;;;13.25;;
80381;SDS011;69692;55.820;37.490;2024-01-06T14:38:19;23.95;;;12.18;;
80381;SDS011;69692;55.820;37.490;2024-01-06T14:40:45;23.83;;;11.18;;
80381;SDS011;69692;55.820;37.490;2024-01-06T14:43:10;25.13;;;11.82;;
80381;SDS011;69692;55.820;37.490;2024-01-06T14:45:36;30.48;;;13.45;;
80381;SDS011;69692;55.820;37.490;2024-01-06T14:48:03;25.83;;;11.15;;
80381;SDS011;69692;55.820;37.490;2024-01-06T14:50:30;25.10;;;11.13;;
80381;SDS011;69692;55.820;37.490;2024-01-06T14:52:55;24.92;;;11.73;;
80381;SDS011;69692;55.820;37.490;2024-01-06T14:55:21;21.80;;;10.93;;
80381;SDS011;69692;55.820;37.490;2024-01-06T14:57:47;24.23;;;12.60;;
80381;SDS011;69692;55.820;37.490;2024-01-06T15:00:13;28.45;;;13.15;;
80381;SDS011;69692;55.820;37.490;2024-01-06T15:02:39;31.40;;;12.95;;
80381;SDS011;69692;55.820;37.490;2024-01-06T15:05:05;20.63;;;11.15;;
80381;SDS011;69692;55.820;37.490;2024-01-06T15:07:32;22.23;;;12.80;;
80381;SDS011;69692;55.820;37.490;2024-01-06T15:10:01;22.08;;;11.32;;
80381;SDS011;69692;55.820;37.490;2024-01-06T15:12:31;24.83;;;12.68;;
80381;SDS011;69692;55.820;37.490;2024-01-06T15:14:57;21.85;;;11.07;;
80381;SDS011;69692;55.820;37.490;2024-01-06T15:17:25;22.02;;;11.75;;
80381;SDS011;69692;55.820;37.490;2024-01-06T15:19:51;21.40;;;11.75;;
80381;SDS011;69692;55.820;37.490;2024-01-06T15:22:17;22.23;;;11.43;;
80381;SDS011;69692;55.820;37.490;2024-01-06T15:24:43;18.42;;;12.38;;
80381;SDS011;69692;55.820;37.490;2024-01-06T15:27:10;28.42;;;12.98;;
80381;SDS011;69692;55.820;37.490;2024-01-06T15:29:36;28.20;;;12.98;;
80381;SDS011;69692;55.820;37.490;2024-01-06T15:32:02;22.88;;;12.60;;
80381;SDS011;69692;55.820;37.490;2024-01-06T15:34:28;23.95;;;13.30;;
80381;SDS011;69692;55.820;37.490;2024-01-06T15:36:54;24.85;;;16.17;;
80381;SDS011;69692;55.820;37.490;2024-01-06T15:39:20;21.92;;;13.00;;
80381;SDS011;69692;55.820;37.490;2024-01-06T15:41:47;24.88;;;12.02;;
80381;SDS011;69692;55.820;37.490;2024-01-06T15:44:13;23.90;;;12.13;;
80381;SDS011;69692;55.820;37.490;2024-01-06T15:46:39;24.45;;;13.73;;
80381;SDS011;69692;55.820;37.490;2024-01-06T15:49:04;25.95;;;12.98;;
80381;SDS011;69692;55.820;37.490;2024-01-06T15:51:30;25.38;;;14.88;;
80381;SDS011;69692;55.820;37.490;2024-01-06T15:53:56;30.38;;;14.02;;
80381;SDS011;69692;55.820;37.490;2024-01-06T15:56:22;27.05;;;13.70;;
80381;SDS011;69692;55.820;37.490;2024-01-06T15:58:48;25.08;;;14.25;;
80381;SDS011;69692;55.820;37.490;2024-01-06T16:01:14;25.98;;;14.23;;
80381;SDS011;69692;55.820;37.490;2024-01-06T16:03:40;29.48;;;17.13;;
80381;SDS011;69692;55.820;37.490;2024-01-06T16:06:07;29.10;;;14.57;;
80381;SDS011;69692;55.820;37.490;2024-01-06T16:08:33;23.55;;;13.20;;
80381;SDS011;69692;55.820;37.490;2024-01-06T16:11:00;16.35;;;10.63;;
80381;SDS011;69692;55.820;37.490;2024-01-06T16:13:26;33.90;;;14.95;;
80381;SDS011;69692;55.820;37.490;2024-01-06T16:15:51;25.27;;;14.05;;
80381;SDS011;69692;55.820;37.490;2024-01-06T16:18:20;23.85;;;12.63;;
80381;SDS011;69692;55.820;37.490;2024-01-06T16:20:46;27.23;;;13.88;;
80381;SDS011;69692;55.820;37.490;2024-01-06T16:23:13;23.73;;;14.35;;
80381;SDS011;69692;55.820;37.490;2024-01-06T16:25:42;32.30;;;13.10;;
80381;SDS011;69692;55.820;37.490;2024-01-06T16:28:08;23.25;;;12.27;;
80381;SDS011;69692;55.820;37.490;2024-01-06T16:30:38;34.50;;;15.25;;
80381;SDS011;69692;55.820;37.490;2024-01-06T16:33:04;25.30;;;14.90;;
80381;SDS011;69692;55.820;37.490;2024-01-06T16:35:32;20.63;;;11.88;;
80381;SDS011;69692;55.820;37.490;2024-01-06T16:38:02;24.75;;;13.02;;
80381;SDS011;69692;55.820;37.490;2024-01-06T16:40:28;23.52;;;12.88;;
80381;SDS011;69692;55.820;37.490;2024-01-06T16:42:54;23.60;;;13.00;;
80381;SDS011;69692;55.820;37.490;2024-01-06T16:45:20;18.58;;;10.88;;
80381;SDS011;69692;55.820;37.490;2024-01-06T16:47:46;23.25;;;12.35;;
80381;SDS011;69692;55.820;37.490;2024-01-06T16:50:12;22.90;;;14.10;;
80381;SDS011;69692;55.820;37.490;2024-01-06T16:52:38;26.48;;;12.07;;